Wills Point, Texas
Current Conditions -  °F | °C
As of 2:53 AM on Saturday 25 Oct 2014 (Local Time) from KTRL Reporting Station
Clear Clear  
Wind Chill: 63°   Ceiling: Unl
Heat Index: 63°   Visibility: 10mi
Dew Point: 59°   Wind: 3mph
Humidity: 87%   Direction: 190°S
Pressure: 30.12"   Gusts: NA
Location:  32.71°N, 96.01°W
Report Text: KTRL 250753Z AUTO 19003KT 10SM CLR 17/15 A3012 RMK AO2 SLP193 T01720150
Loading
Personal Weather Stations






























Interactive Weather Map
Tropical Storm Tracking
New forecast layout! Learn more

10-Day Weather Forecast

Advertisements
Track Severe Weather on mobile